Randolph, Minnesota
Current Conditions -  °F | °C
As of 3:33 PM on Friday 19 Dec 2014 (Local Time) from KSYN Reporting Station
Overcast Overcast  
Wind Chill: 23°   Ceiling: 2600
Heat Index: 31°   Visibility: 7mi
Dew Point: 26°   Wind: 8mph
Humidity: 80%   Direction: 150°SSE
Pressure: 30.18"   Gusts: NA
Location:  44.53°N, 93.02°W
Report Text: KSYN 192133Z AUTO 15007KT 7SM OVC026 M01/M04 A3018 RMK AO2 T10061036
Loading
Personal Weather Stations






























Interactive Weather Map New forecast layout! Learn more

10-Day Weather Forecast

Advertisements
Track Severe Weather on mobile